sensor_id;sensor_type;location;lat;lon;timestamp;P1;durP1;ratioP1;P2;durP2;ratioP2
7515;SDS011;3799;47.184;8.538;2023-04-24T00:01:05;1.67;;;0.45;;
7515;SDS011;3799;47.184;8.538;2023-04-24T00:03:35;1.50;;;0.40;;
7515;SDS011;3799;47.184;8.538;2023-04-24T00:06:04;1.10;;;0.22;;
7515;SDS011;3799;47.184;8.538;2023-04-24T00:08:35;0.63;;;0.30;;
7515;SDS011;3799;47.184;8.538;2023-04-24T00:11:02;2.45;;;0.88;;
7515;SDS011;3799;47.184;8.538;2023-04-24T00:13:30;1.55;;;0.50;;
7515;SDS011;3799;47.184;8.538;2023-04-24T00:15:57;2.35;;;0.77;;
7515;SDS011;3799;47.184;8.538;2023-04-24T00:18:25;2.88;;;0.43;;
7515;SDS011;3799;47.184;8.538;2023-04-24T00:20:52;1.13;;;0.57;;
7515;SDS011;3799;47.184;8.538;2023-04-24T00:23:20;2.05;;;0.50;;
7515;SDS011;3799;47.184;8.538;2023-04-24T00:25:48;3.92;;;0.50;;
7515;SDS011;3799;47.184;8.538;2023-04-24T00:28:15;1.73;;;0.50;;
7515;SDS011;3799;47.184;8.538;2023-04-24T00:30:42;0.82;;;0.20;;
7515;SDS011;3799;47.184;8.538;2023-04-24T00:33:10;2.58;;;0.65;;
7515;SDS011;3799;47.184;8.538;2023-04-24T00:35:37;1.00;;;0.38;;
7515;SDS011;3799;47.184;8.538;2023-04-24T00:38:18;0.85;;;0.40;;
7515;SDS011;3799;47.184;8.538;2023-04-24T00:40:48;3.05;;;0.60;;
7515;SDS011;3799;47.184;8.538;2023-04-24T00:43:17;2.25;;;1.27;;
7515;SDS011;3799;47.184;8.538;2023-04-24T00:45:44;2.90;;;0.70;;
7515;SDS011;3799;47.184;8.538;2023-04-24T00:48:11;1.88;;;0.80;;
7515;SDS011;3799;47.184;8.538;2023-04-24T00:50:39;2.65;;;0.80;;
7515;SDS011;3799;47.184;8.538;2023-04-24T00:53:07;1.88;;;0.40;;
7515;SDS011;3799;47.184;8.538;2023-04-24T00:55:40;0.47;;;0.30;;
7515;SDS011;3799;47.184;8.538;2023-04-24T00:58:07;0.88;;;0.30;;
7515;SDS011;3799;47.184;8.538;2023-04-24T01:00:35;0.90;;;0.30;;
7515;SDS011;3799;47.184;8.538;2023-04-24T01:03:03;0.93;;;0.70;;
7515;SDS011;3799;47.184;8.538;2023-04-24T01:05:33;2.80;;;0.30;;
7515;SDS011;3799;47.184;8.538;2023-04-24T01:08:01;2.20;;;0.50;;
7515;SDS011;3799;47.184;8.538;2023-04-24T01:10:30;1.25;;;0.30;;
7515;SDS011;3799;47.184;8.538;2023-04-24T01:13:00;1.67;;;0.40;;
7515;SDS011;3799;47.184;8.538;2023-04-24T01:15:27;1.92;;;0.47;;
7515;SDS011;3799;47.184;8.538;2023-04-24T01:17:55;0.70;;;0.32;;
7515;SDS011;3799;47.184;8.538;2023-04-24T01:20:23;1.08;;;0.30;;
7515;SDS011;3799;47.184;8.538;2023-04-24T01:22:54;1.45;;;0.45;;
7515;SDS011;3799;47.184;8.538;2023-04-24T01:27:52;1.15;;;0.32;;
7515;SDS011;3799;47.184;8.538;2023-04-24T01:30:24;1.70;;;0.50;;
7515;SDS011;3799;47.184;8.538;2023-04-24T01:32:56;1.25;;;0.57;;
7515;SDS011;3799;47.184;8.538;2023-04-24T01:35:39;1.15;;;0.40;;
7515;SDS011;3799;47.184;8.538;2023-04-24T01:38:07;0.80;;;0.30;;
7515;SDS011;3799;47.184;8.538;2023-04-24T01:40:34;1.08;;;0.30;;
7515;SDS011;3799;47.184;8.538;2023-04-24T01:43:01;2.13;;;0.30;;
7515;SDS011;3799;47.184;8.538;2023-04-24T01:45:29;0.43;;;0.20;;
7515;SDS011;3799;47.184;8.538;2023-04-24T01:48:03;0.93;;;0.30;;
7515;SDS011;3799;47.184;8.538;2023-04-24T01:50:31;0.77;;;0.15;;
7515;SDS011;3799;47.184;8.538;2023-04-24T01:53:17;0.70;;;0.20;;
7515;SDS011;3799;47.184;8.538;2023-04-24T01:55:45;1.05;;;0.10;;
7515;SDS011;3799;47.184;8.538;2023-04-24T01:58:13;0.82;;;0.00;;
7515;SDS011;3799;47.184;8.538;2023-04-24T02:00:42;0.55;;;0.10;;
7515;SDS011;3799;47.184;8.538;2023-04-24T02:03:11;0.25;;;0.10;;
7515;SDS011;3799;47.184;8.538;2023-04-24T02:05:39;0.35;;;0.00;;
7515;SDS011;3799;47.184;8.538;2023-04-24T02:08:06;0.95;;;0.10;;
7515;SDS011;3799;47.184;8.538;2023-04-24T02:10:34;0.57;;;0.10;;
7515;SDS011;3799;47.184;8.538;2023-04-24T02:13:03;0.30;;;0.10;;
7515;SDS011;3799;47.184;8.538;2023-04-24T02:15:31;0.28;;;0.00;;
7515;SDS011;3799;47.184;8.538;2023-04-24T02:17:59;0.13;;;0.10;;
7515;SDS011;3799;47.184;8.538;2023-04-24T02:20:28;0.43;;;0.10;;
7515;SDS011;3799;47.184;8.538;2023-04-24T02:22:59;0.20;;;0.10;;
7515;SDS011;3799;47.184;8.538;2023-04-24T02:25:27;0.20;;;0.10;;
7515;SDS011;3799;47.184;8.538;2023-04-24T02:27:54;0.17;;;0.00;;
7515;SDS011;3799;47.184;8.538;2023-04-24T02:30:24;2.28;;;0.00;;
7515;SDS011;3799;47.184;8.538;2023-04-24T02:32:53;1.27;;;0.00;;
7515;SDS011;3799;47.184;8.538;2023-04-24T02:35:20;0.15;;;0.05;;
7515;SDS011;3799;47.184;8.538;2023-04-24T02:37:48;0.05;;;0.00;;
7515;SDS011;3799;47.184;8.538;2023-04-24T02:40:16;0.00;;;0.00;;
7515;SDS011;3799;47.184;8.538;2023-04-24T02:42:43;0.00;;;0.00;;
7515;SDS011;3799;47.184;8.538;2023-04-24T02:45:11;0.20;;;0.10;;
7515;SDS011;3799;47.184;8.538;2023-04-24T02:47:38;0.85;;;0.25;;
7515;SDS011;3799;47.184;8.538;2023-04-24T02:50:06;0.08;;;0.00;;
7515;SDS011;3799;47.184;8.538;2023-04-24T02:52:37;0.05;;;0.00;;
7515;SDS011;3799;47.184;8.538;2023-04-24T02:55:05;1.48;;;0.00;;
7515;SDS011;3799;47.184;8.538;2023-04-24T02:57:32;0.28;;;0.03;;
7515;SDS011;3799;47.184;8.538;2023-04-24T03:00:00;0.40;;;0.10;;
7515;SDS011;3799;47.184;8.538;2023-04-24T03:02:28;0.10;;;0.10;;
7515;SDS011;3799;47.184;8.538;2023-04-24T03:04:55;0.20;;;0.00;;
7515;SDS011;3799;47.184;8.538;2023-04-24T03:07:24;0.63;;;0.00;;
7515;SDS011;3799;47.184;8.538;2023-04-24T03:09:51;0.00;;;0.00;;
7515;SDS011;3799;47.184;8.538;2023-04-24T03:12:18;0.00;;;0.00;;
7515;SDS011;3799;47.184;8.538;2023-04-24T03:14:55;0.43;;;0.03;;
7515;SDS011;3799;47.184;8.538;2023-04-24T03:17:23;0.05;;;0.00;;
7515;SDS011;3799;47.184;8.538;2023-04-24T03:19:57;0.10;;;0.10;;
7515;SDS011;3799;47.184;8.538;2023-04-24T03:22:24;0.10;;;0.00;;
7515;SDS011;3799;47.184;8.538;2023-04-24T03:24:52;0.63;;;0.13;;
7515;SDS011;3799;47.184;8.538;2023-04-24T03:27:21;0.00;;;0.00;;
7515;SDS011;3799;47.184;8.538;2023-04-24T03:29:48;0.00;;;0.00;;
7515;SDS011;3799;47.184;8.538;2023-04-24T03:32:20;0.20;;;0.10;;
7515;SDS011;3799;47.184;8.538;2023-04-24T03:34:52;0.32;;;0.10;;
7515;SDS011;3799;47.184;8.538;2023-04-24T03:37:20;0.47;;;0.20;;
7515;SDS011;3799;47.184;8.538;2023-04-24T03:39:48;0.03;;;0.00;;
7515;SDS011;3799;47.184;8.538;2023-04-24T03:42:15;0.45;;;0.10;;
7515;SDS011;3799;47.184;8.538;2023-04-24T03:44:42;0.20;;;0.10;;
7515;SDS011;3799;47.184;8.538;2023-04-24T03:47:10;0.20;;;0.05;;
7515;SDS011;3799;47.184;8.538;2023-04-24T03:49:38;0.30;;;0.10;;
7515;SDS011;3799;47.184;8.538;2023-04-24T03:52:05;0.55;;;0.10;;
7515;SDS011;3799;47.184;8.538;2023-04-24T03:54:32;0.30;;;0.00;;
7515;SDS011;3799;47.184;8.538;2023-04-24T03:57:00;0.20;;;0.00;;
7515;SDS011;3799;47.184;8.538;2023-04-24T03:59:28;0.45;;;0.00;;
7515;SDS011;3799;47.184;8.538;2023-04-24T04:01:56;0.50;;;0.10;;
7515;SDS011;3799;47.184;8.538;2023-04-24T04:04:26;0.00;;;0.00;;
7515;SDS011;3799;47.184;8.538;2023-04-24T04:07:04;0.32;;;0.10;;
7515;SDS011;3799;47.184;8.538;2023-04-24T04:09:32;0.20;;;0.00;;
7515;SDS011;3799;47.184;8.538;2023-04-24T04:12:00;0.20;;;0.10;;
7515;SDS011;3799;47.184;8.538;2023-04-24T04:14:27;0.00;;;0.00;;
7515;SDS011;3799;47.184;8.538;2023-04-24T04:16:55;0.30;;;0.10;;
7515;SDS011;3799;47.184;8.538;2023-04-24T04:19:23;0.15;;;0.00;;
7515;SDS011;3799;47.184;8.538;2023-04-24T04:21:50;0.20;;;0.20;;
7515;SDS011;3799;47.184;8.538;2023-04-24T04:24:19;0.60;;;0.20;;
7515;SDS011;3799;47.184;8.538;2023-04-24T04:26:51;0.03;;;0.00;;
7515;SDS011;3799;47.184;8.538;2023-04-24T04:29:20;0.10;;;0.00;;
7515;SDS011;3799;47.184;8.538;2023-04-24T04:31:49;0.00;;;0.00;;
7515;SDS011;3799;47.184;8.538;2023-04-24T04:34:17;0.30;;;0.00;;
7515;SDS011;3799;47.184;8.538;2023-04-24T04:36:46;0.22;;;0.03;;
7515;SDS011;3799;47.184;8.538;2023-04-24T04:39:13;0.17;;;0.08;;
7515;SDS011;3799;47.184;8.538;2023-04-24T04:41:41;0.43;;;0.10;;
7515;SDS011;3799;47.184;8.538;2023-04-24T04:44:09;0.38;;;0.00;;
7515;SDS011;3799;47.184;8.538;2023-04-24T04:46:36;0.38;;;0.10;;
7515;SDS011;3799;47.184;8.538;2023-04-24T04:49:05;0.20;;;0.03;;
7515;SDS011;3799;47.184;8.538;2023-04-24T04:51:33;1.02;;;0.10;;
7515;SDS011;3799;47.184;8.538;2023-04-24T04:54:01;0.20;;;0.10;;
7515;SDS011;3799;47.184;8.538;2023-04-24T04:56:29;0.50;;;0.10;;
7515;SDS011;3799;47.184;8.538;2023-04-24T04:58:56;0.25;;;0.10;;
7515;SDS011;3799;47.184;8.538;2023-04-24T05:01:25;0.60;;;0.20;;
7515;SDS011;3799;47.184;8.538;2023-04-24T05:03:54;0.55;;;0.15;;
7515;SDS011;3799;47.184;8.538;2023-04-24T05:06:22;0.52;;;0.17;;
7515;SDS011;3799;47.184;8.538;2023-04-24T05:08:50;0.30;;;0.10;;
7515;SDS011;3799;47.184;8.538;2023-04-24T05:11:17;0.30;;;0.03;;
7515;SDS011;3799;47.184;8.538;2023-04-24T05:13:44;0.08;;;0.03;;
7515;SDS011;3799;47.184;8.538;2023-04-24T05:16:15;0.30;;;0.10;;
7515;SDS011;3799;47.184;8.538;2023-04-24T05:18:43;0.40;;;0.00;;
7515;SDS011;3799;47.184;8.538;2023-04-24T05:21:10;0.35;;;0.10;;
7515;SDS011;3799;47.184;8.538;2023-04-24T05:23:38;1.45;;;0.10;;
7515;SDS011;3799;47.184;8.538;2023-04-24T05:26:10;0.65;;;0.20;;
7515;SDS011;3799;47.184;8.538;2023-04-24T05:28:37;1.55;;;0.10;;
7515;SDS011;3799;47.184;8.538;2023-04-24T05:31:09;1.60;;;0.20;;
7515;SDS011;3799;47.184;8.538;2023-04-24T05:33:37;1.95;;;0.28;;
7515;SDS011;3799;47.184;8.538;2023-04-24T05:36:05;1.10;;;0.13;;
7515;SDS011;3799;47.184;8.538;2023-04-24T05:38:33;0.43;;;0.10;;
7515;SDS011;3799;47.184;8.538;2023-04-24T05:41:00;1.67;;;0.47;;
7515;SDS011;3799;47.184;8.538;2023-04-24T05:43:28;0.90;;;0.20;;
7515;SDS011;3799;47.184;8.538;2023-04-24T05:45:56;1.65;;;0.10;;
7515;SDS011;3799;47.184;8.538;2023-04-24T05:48:26;2.95;;;0.55;;
7515;SDS011;3799;47.184;8.538;2023-04-24T05:50:53;0.77;;;0.30;;
7515;SDS011;3799;47.184;8.538;2023-04-24T05:53:24;1.35;;;0.17;;
7515;SDS011;3799;47.184;8.538;2023-04-24T05:55:51;0.88;;;0.43;;
7515;SDS011;3799;47.184;8.538;2023-04-24T05:58:19;0.50;;;0.10;;
7515;SDS011;3799;47.184;8.538;2023-04-24T06:00:46;0.32;;;0.00;;
7515;SDS011;3799;47.184;8.538;2023-04-24T06:03:15;0.45;;;0.17;;
7515;SDS011;3799;47.184;8.538;2023-04-24T06:05:42;0.80;;;0.10;;
7515;SDS011;3799;47.184;8.538;2023-04-24T06:08:10;0.40;;;0.10;;
7515;SDS011;3799;47.184;8.538;2023-04-24T06:10:38;0.47;;;0.10;;
7515;SDS011;3799;47.184;8.538;2023-04-24T06:13:06;1.02;;;0.20;;
7515;SDS011;3799;47.184;8.538;2023-04-24T06:15:35;1.08;;;0.35;;
7515;SDS011;3799;47.184;8.538;2023-04-24T06:18:03;0.25;;;0.08;;
7515;SDS011;3799;47.184;8.538;2023-04-24T06:20:33;0.22;;;0.03;;
7515;SDS011;3799;47.184;8.538;2023-04-24T06:23:01;0.28;;;0.00;;
7515;SDS011;3799;47.184;8.538;2023-04-24T06:25:34;0.52;;;0.10;;
7515;SDS011;3799;47.184;8.538;2023-04-24T06:28:06;0.32;;;0.10;;
7515;SDS011;3799;47.184;8.538;2023-04-24T06:30:35;0.65;;;0.32;;
7515;SDS011;3799;47.184;8.538;2023-04-24T06:33:03;0.43;;;0.10;;
7515;SDS011;3799;47.184;8.538;2023-04-24T06:35:49;0.68;;;0.20;;
7515;SDS011;3799;47.184;8.538;2023-04-24T06:38:19;5.38;;;0.75;;
7515;SDS011;3799;47.184;8.538;2023-04-24T06:40:50;0.80;;;0.10;;
7515;SDS011;3799;47.184;8.538;2023-04-24T06:43:17;0.43;;;0.20;;
7515;SDS011;3799;47.184;8.538;2023-04-24T06:45:46;1.70;;;0.17;;
7515;SDS011;3799;47.184;8.538;2023-04-24T06:48:15;1.00;;;0.10;;
7515;SDS011;3799;47.184;8.538;2023-04-24T06:50:43;2.45;;;0.10;;
7515;SDS011;3799;47.184;8.538;2023-04-24T06:53:11;1.48;;;0.10;;
7515;SDS011;3799;47.184;8.538;2023-04-24T06:55:40;0.38;;;0.03;;
7515;SDS011;3799;47.184;8.538;2023-04-24T06:58:18;0.50;;;0.00;;
7515;SDS011;3799;47.184;8.538;2023-04-24T07:00:45;2.13;;;0.10;;
7515;SDS011;3799;47.184;8.538;2023-04-24T07:03:12;0.73;;;0.20;;
7515;SDS011;3799;47.184;8.538;2023-04-24T07:05:40;0.47;;;0.10;;
7515;SDS011;3799;47.184;8.538;2023-04-24T07:08:08;0.30;;;0.10;;
7515;SDS011;3799;47.184;8.538;2023-04-24T07:10:37;0.82;;;0.20;;
7515;SDS011;3799;47.184;8.538;2023-04-24T07:13:05;0.13;;;0.05;;
7515;SDS011;3799;47.184;8.538;2023-04-24T07:15:33;1.55;;;0.20;;
7515;SDS011;3799;47.184;8.538;2023-04-24T07:18:01;0.77;;;0.35;;
7515;SDS011;3799;47.184;8.538;2023-04-24T07:20:32;1.25;;;0.43;;
7515;SDS011;3799;47.184;8.538;2023-04-24T07:23:00;4.00;;;0.50;;
7515;SDS011;3799;47.184;8.538;2023-04-24T07:25:28;2.15;;;0.50;;
7515;SDS011;3799;47.184;8.538;2023-04-24T07:27:56;2.65;;;0.70;;
7515;SDS011;3799;47.184;8.538;2023-04-24T07:30:24;2.42;;;0.95;;
7515;SDS011;3799;47.184;8.538;2023-04-24T07:32:51;2.75;;;0.68;;
7515;SDS011;3799;47.184;8.538;2023-04-24T07:35:18;1.45;;;0.73;;
7515;SDS011;3799;47.184;8.538;2023-04-24T07:37:46;4.65;;;0.95;;
7515;SDS011;3799;47.184;8.538;2023-04-24T07:40:14;4.30;;;1.13;;
7515;SDS011;3799;47.184;8.538;2023-04-24T07:42:42;2.03;;;0.85;;
7515;SDS011;3799;47.184;8.538;2023-04-24T07:45:10;1.40;;;0.70;;
7515;SDS011;3799;47.184;8.538;2023-04-24T07:47:37;3.20;;;1.05;;
7515;SDS011;3799;47.184;8.538;2023-04-24T07:50:06;1.80;;;0.70;;
7515;SDS011;3799;47.184;8.538;2023-04-24T07:52:34;2.92;;;0.80;;
7515;SDS011;3799;47.184;8.538;2023-04-24T07:55:01;1.27;;;0.63;;
7515;SDS011;3799;47.184;8.538;2023-04-24T07:57:29;3.63;;;0.80;;
7515;SDS011;3799;47.184;8.538;2023-04-24T07:59:56;2.00;;;0.95;;
7515;SDS011;3799;47.184;8.538;2023-04-24T08:02:37;3.53;;;0.70;;
7515;SDS011;3799;47.184;8.538;2023-04-24T08:05:05;3.17;;;0.90;;
7515;SDS011;3799;47.184;8.538;2023-04-24T08:07:33;4.00;;;0.70;;
7515;SDS011;3799;47.184;8.538;2023-04-24T08:10:02;1.85;;;1.08;;
7515;SDS011;3799;47.184;8.538;2023-04-24T08:12:29;3.33;;;0.60;;
7515;SDS011;3799;47.184;8.538;2023-04-24T08:14:57;1.63;;;0.47;;
7515;SDS011;3799;47.184;8.538;2023-04-24T08:17:25;2.10;;;0.90;;
7515;SDS011;3799;47.184;8.538;2023-04-24T08:19:53;1.60;;;0.65;;
7515;SDS011;3799;47.184;8.538;2023-04-24T08:22:34;2.83;;;0.90;;
7515;SDS011;3799;47.184;8.538;2023-04-24T08:25:04;2.40;;;0.90;;
7515;SDS011;3799;47.184;8.538;2023-04-24T08:27:32;4.60;;;0.85;;
7515;SDS011;3799;47.184;8.538;2023-04-24T08:29:59;2.60;;;0.85;;
7515;SDS011;3799;47.184;8.538;2023-04-24T08:32:27;1.95;;;0.85;;
7515;SDS011;3799;47.184;8.538;2023-04-24T08:34:57;2.25;;;0.90;;
7515;SDS011;3799;47.184;8.538;2023-04-24T08:37:26;1.17;;;0.60;;
7515;SDS011;3799;47.184;8.538;2023-04-24T08:39:54;1.88;;;0.70;;
7515;SDS011;3799;47.184;8.538;2023-04-24T08:42:22;1.08;;;0.60;;
7515;SDS011;3799;47.184;8.538;2023-04-24T08:44:49;2.83;;;0.77;;
7515;SDS011;3799;47.184;8.538;2023-04-24T08:47:17;1.90;;;0.80;;
7515;SDS011;3799;47.184;8.538;2023-04-24T08:49:49;1.70;;;0.60;;
7515;SDS011;3799;47.184;8.538;2023-04-24T08:52:18;2.15;;;0.50;;
7515;SDS011;3799;47.184;8.538;2023-04-24T08:54:47;1.42;;;0.38;;
7515;SDS011;3799;47.184;8.538;2023-04-24T08:57:15;1.63;;;0.55;;
7515;SDS011;3799;47.184;8.538;2023-04-24T08:59:44;1.80;;;0.50;;
7515;SDS011;3799;47.184;8.538;2023-04-24T09:02:12;1.63;;;0.50;;
7515;SDS011;3799;47.184;8.538;2023-04-24T09:04:41;3.15;;;0.85;;
7515;SDS011;3799;47.184;8.538;2023-04-24T09:07:11;1.33;;;0.68;;
7515;SDS011;3799;47.184;8.538;2023-04-24T09:09:41;2.80;;;0.80;;
7515;SDS011;3799;47.184;8.538;2023-04-24T09:12:11;2.53;;;0.63;;
7515;SDS011;3799;47.184;8.538;2023-04-24T09:14:39;1.35;;;0.75;;
7515;SDS011;3799;47.184;8.538;2023-04-24T09:17:11;3.65;;;0.60;;
7515;SDS011;3799;47.184;8.538;2023-04-24T09:19:39;2.88;;;0.98;;
7515;SDS011;3799;47.184;8.538;2023-04-24T09:22:09;2.00;;;0.65;;
7515;SDS011;3799;47.184;8.538;2023-04-24T09:24:37;3.30;;;0.80;;
7515;SDS011;3799;47.184;8.538;2023-04-24T09:27:05;2.78;;;0.68;;
7515;SDS011;3799;47.184;8.538;2023-04-24T09:29:36;2.42;;;0.70;;
7515;SDS011;3799;47.184;8.538;2023-04-24T09:32:20;9.65;;;1.13;;
7515;SDS011;3799;47.184;8.538;2023-04-24T09:34:49;3.00;;;0.90;;
7515;SDS011;3799;47.184;8.538;2023-04-24T09:37:28;4.43;;;1.08;;
7515;SDS011;3799;47.184;8.538;2023-04-24T09:40:08;2.75;;;1.00;;
7515;SDS011;3799;47.184;8.538;2023-04-24T09:42:53;1.52;;;0.70;;
7515;SDS011;3799;47.184;8.538;2023-04-24T09:45:35;3.63;;;1.02;;
7515;SDS011;3799;47.184;8.538;2023-04-24T09:48:04;2.70;;;1.00;;
7515;SDS011;3799;47.184;8.538;2023-04-24T09:50:33;2.67;;;1.00;;
7515;SDS011;3799;47.184;8.538;2023-04-24T09:53:02;2.88;;;1.23;;
7515;SDS011;3799;47.184;8.538;2023-04-24T09:55:31;3.08;;;1.30;;
7515;SDS011;3799;47.184;8.538;2023-04-24T09:58:00;2.83;;;0.88;;
7515;SDS011;3799;47.184;8.538;2023-04-24T10:00:31;2.28;;;0.90;;
7515;SDS011;3799;47.184;8.538;2023-04-24T10:03:01;2.67;;;1.00;;
7515;SDS011;3799;47.184;8.538;2023-04-24T10:05:37;2.75;;;1.05;;
7515;SDS011;3799;47.184;8.538;2023-04-24T10:08:10;4.05;;;1.00;;
7515;SDS011;3799;47.184;8.538;2023-04-24T10:10:44;3.05;;;1.00;;
7515;SDS011;3799;47.184;8.538;2023-04-24T10:13:13;2.75;;;1.02;;
7515;SDS011;3799;47.184;8.538;2023-04-24T10:15:42;3.78;;;0.70;;
7515;SDS011;3799;47.184;8.538;2023-04-24T10:18:10;2.08;;;0.70;;
7515;SDS011;3799;47.184;8.538;2023-04-24T10:20:38;3.83;;;0.90;;
7515;SDS011;3799;47.184;8.538;2023-04-24T10:23:07;1.25;;;0.50;;
7515;SDS011;3799;47.184;8.538;2023-04-24T10:25:36;1.42;;;0.70;;
7515;SDS011;3799;47.184;8.538;2023-04-24T10:28:04;1.67;;;0.63;;
7515;SDS011;3799;47.184;8.538;2023-04-24T10:30:35;1.63;;;0.80;;
7515;SDS011;3799;47.184;8.538;2023-04-24T10:33:03;4.05;;;1.33;;
7515;SDS011;3799;47.184;8.538;2023-04-24T10:35:32;3.47;;;1.35;;
7515;SDS011;3799;47.184;8.538;2023-04-24T10:38:05;2.17;;;0.70;;
7515;SDS011;3799;47.184;8.538;2023-04-24T10:40:36;2.17;;;0.73;;
7515;SDS011;3799;47.184;8.538;2023-04-24T10:43:07;1.27;;;0.60;;
7515;SDS011;3799;47.184;8.538;2023-04-24T10:45:38;1.55;;;0.50;;
7515;SDS011;3799;47.184;8.538;2023-04-24T10:48:06;2.33;;;0.95;;
7515;SDS011;3799;47.184;8.538;2023-04-24T10:53:19;1.80;;;0.68;;
7515;SDS011;3799;47.184;8.538;2023-04-24T10:55:51;1.13;;;0.50;;
7515;SDS011;3799;47.184;8.538;2023-04-24T10:58:35;2.88;;;0.73;;
7515;SDS011;3799;47.184;8.538;2023-04-24T11:01:22;6.22;;;0.95;;
7515;SDS011;3799;47.184;8.538;2023-04-24T11:04:00;2.60;;;0.80;;
7515;SDS011;3799;47.184;8.538;2023-04-24T11:09:03;2.17;;;0.90;;
7515;SDS011;3799;47.184;8.538;2023-04-24T11:11:34;3.08;;;1.10;;
7515;SDS011;3799;47.184;8.538;2023-04-24T11:21:43;2.72;;;0.60;;
7515;SDS011;3799;47.184;8.538;2023-04-24T11:27:07;2.10;;;0.85;;
7515;SDS011;3799;47.184;8.538;2023-04-24T11:30:02;2.35;;;0.95;;
7515;SDS011;3799;47.184;8.538;2023-04-24T11:35:04;4.10;;;0.75;;
7515;SDS011;3799;47.184;8.538;2023-04-24T11:40:06;2.40;;;1.30;;
7515;SDS011;3799;47.184;8.538;2023-04-24T11:42:36;2.42;;;0.70;;
7515;SDS011;3799;47.184;8.538;2023-04-24T11:45:11;2.17;;;0.80;;
7515;SDS011;3799;47.184;8.538;2023-04-24T11:47:43;1.40;;;0.77;;
7515;SDS011;3799;47.184;8.538;2023-04-24T11:50:12;2.72;;;0.80;;
7515;SDS011;3799;47.184;8.538;2023-04-24T11:52:41;3.25;;;0.70;;
7515;SDS011;3799;47.184;8.538;2023-04-24T11:57:46;2.15;;;0.65;;
7515;SDS011;3799;47.184;8.538;2023-04-24T12:03:02;2.15;;;1.00;;
7515;SDS011;3799;47.184;8.538;2023-04-24T12:05:34;2.33;;;0.80;;
7515;SDS011;3799;47.184;8.538;2023-04-24T12:08:02;3.92;;;1.00;;
7515;SDS011;3799;47.184;8.538;2023-04-24T12:10:30;1.92;;;0.80;;
7515;SDS011;3799;47.184;8.538;2023-04-24T12:12:59;4.05;;;0.90;;
7515;SDS011;3799;47.184;8.538;2023-04-24T12:15:34;2.13;;;0.60;;
7515;SDS011;3799;47.184;8.538;2023-04-24T12:18:03;1.33;;;0.77;;
7515;SDS011;3799;47.184;8.538;2023-04-24T12:20:40;4.10;;;0.90;;
7515;SDS011;3799;47.184;8.538;2023-04-24T12:23:07;3.03;;;0.80;;
7515;SDS011;3799;47.184;8.538;2023-04-24T12:30:35;1.90;;;0.65;;
7515;SDS011;3799;47.184;8.538;2023-04-24T12:33:19;1.42;;;0.63;;
7515;SDS011;3799;47.184;8.538;2023-04-24T12:35:50;2.92;;;0.70;;
7515;SDS011;3799;47.184;8.538;2023-04-24T12:38:24;2.25;;;0.77;;
7515;SDS011;3799;47.184;8.538;2023-04-24T12:41:03;3.85;;;0.65;;
7515;SDS011;3799;47.184;8.538;2023-04-24T12:43:32;2.72;;;1.02;;
7515;SDS011;3799;47.184;8.538;2023-04-24T12:46:00;5.00;;;0.70;;
7515;SDS011;3799;47.184;8.538;2023-04-24T12:48:29;3.85;;;0.70;;
7515;SDS011;3799;47.184;8.538;2023-04-24T12:50:58;2.53;;;0.80;;
7515;SDS011;3799;47.184;8.538;2023-04-24T12:53:30;2.35;;;0.60;;
7515;SDS011;3799;47.184;8.538;2023-04-24T12:55:58;3.40;;;0.90;;
7515;SDS011;3799;47.184;8.538;2023-04-24T12:58:25;1.08;;;0.63;;
7515;SDS011;3799;47.184;8.538;2023-04-24T13:00:53;3.25;;;0.60;;
7515;SDS011;3799;47.184;8.538;2023-04-24T13:03:21;1.60;;;0.73;;
7515;SDS011;3799;47.184;8.538;2023-04-24T13:05:52;3.08;;;0.60;;
7515;SDS011;3799;47.184;8.538;2023-04-24T13:08:19;3.88;;;0.80;;
7515;SDS011;3799;47.184;8.538;2023-04-24T13:10:51;1.52;;;0.60;;
7515;SDS011;3799;47.184;8.538;2023-04-24T13:13:20;1.23;;;0.70;;
7515;SDS011;3799;47.184;8.538;2023-04-24T13:18:18;1.52;;;0.60;;
7515;SDS011;3799;47.184;8.538;2023-04-24T13:20:46;2.63;;;0.73;;
7515;SDS011;3799;47.184;8.538;2023-04-24T13:23:14;2.22;;;0.90;;
7515;SDS011;3799;47.184;8.538;2023-04-24T13:25:42;1.75;;;0.68;;
7515;SDS011;3799;47.184;8.538;2023-04-24T13:28:09;2.05;;;0.70;;
7515;SDS011;3799;47.184;8.538;2023-04-24T13:30:37;2.08;;;0.70;;
7515;SDS011;3799;47.184;8.538;2023-04-24T13:33:05;1.98;;;0.70;;
7515;SDS011;3799;47.184;8.538;2023-04-24T13:35:32;1.92;;;0.68;;
7515;SDS011;3799;47.184;8.538;2023-04-24T13:38:00;1.63;;;0.60;;
7515;SDS011;3799;47.184;8.538;2023-04-24T13:40:32;1.67;;;0.68;;
7515;SDS011;3799;47.184;8.538;2023-04-24T13:43:00;1.88;;;0.60;;
7515;SDS011;3799;47.184;8.538;2023-04-24T13:45:28;3.47;;;0.70;;
7515;SDS011;3799;47.184;8.538;2023-04-24T13:47:56;1.25;;;0.30;;
7515;SDS011;3799;47.184;8.538;2023-04-24T13:50:23;2.28;;;0.80;;
7515;SDS011;3799;47.184;8.538;2023-04-24T13:52:51;2.90;;;0.60;;
7515;SDS011;3799;47.184;8.538;2023-04-24T13:55:18;1.35;;;0.50;;
7515;SDS011;3799;47.184;8.538;2023-04-24T13:57:46;4.93;;;0.90;;
7515;SDS011;3799;47.184;8.538;2023-04-24T14:00:21;1.48;;;0.73;;
7515;SDS011;3799;47.184;8.538;2023-04-24T14:02:52;3.67;;;0.70;;
7515;SDS011;3799;47.184;8.538;2023-04-24T14:05:19;3.88;;;1.20;;
7515;SDS011;3799;47.184;8.538;2023-04-24T14:07:48;1.52;;;0.60;;
7515;SDS011;3799;47.184;8.538;2023-04-24T14:10:15;1.48;;;0.57;;
7515;SDS011;3799;47.184;8.538;2023-04-24T14:12:43;1.95;;;0.70;;
7515;SDS011;3799;47.184;8.538;2023-04-24T14:15:13;5.07;;;1.10;;
7515;SDS011;3799;47.184;8.538;2023-04-24T14:17:40;2.78;;;0.68;;
7515;SDS011;3799;47.184;8.538;2023-04-24T14:20:08;2.65;;;1.13;;
7515;SDS011;3799;47.184;8.538;2023-04-24T14:22:36;1.23;;;0.68;;
7515;SDS011;3799;47.184;8.538;2023-04-24T14:25:04;2.47;;;0.88;;
7515;SDS011;3799;47.184;8.538;2023-04-24T14:27:33;2.67;;;1.20;;
7515;SDS011;3799;47.184;8.538;2023-04-24T14:30:01;3.13;;;0.80;;
7515;SDS011;3799;47.184;8.538;2023-04-24T14:32:29;1.35;;;0.85;;
7515;SDS011;3799;47.184;8.538;2023-04-24T14:34:57;6.38;;;0.65;;
7515;SDS011;3799;47.184;8.538;2023-04-24T14:37:28;1.60;;;0.60;;
7515;SDS011;3799;47.184;8.538;2023-04-24T14:39:59;1.95;;;0.52;;
7515;SDS011;3799;47.184;8.538;2023-04-24T14:42:31;3.63;;;0.90;;
7515;SDS011;3799;47.184;8.538;2023-04-24T14:44:59;2.20;;;0.65;;
7515;SDS011;3799;47.184;8.538;2023-04-24T14:47:27;1.90;;;0.70;;
7515;SDS011;3799;47.184;8.538;2023-04-24T14:49:55;3.00;;;0.98;;
7515;SDS011;3799;47.184;8.538;2023-04-24T14:52:23;3.92;;;0.73;;
7515;SDS011;3799;47.184;8.538;2023-04-24T14:54:51;1.85;;;1.00;;
7515;SDS011;3799;47.184;8.538;2023-04-24T14:57:20;2.50;;;0.63;;
7515;SDS011;3799;47.184;8.538;2023-04-24T14:59:48;2.30;;;0.60;;
7515;SDS011;3799;47.184;8.538;2023-04-24T15:02:20;1.50;;;0.30;;
7515;SDS011;3799;47.184;8.538;2023-04-24T15:04:48;1.33;;;0.30;;
7515;SDS011;3799;47.184;8.538;2023-04-24T15:07:15;1.33;;;0.28;;
7515;SDS011;3799;47.184;8.538;2023-04-24T15:09:42;2.15;;;0.40;;
7515;SDS011;3799;47.184;8.538;2023-04-24T15:12:10;1.48;;;0.43;;
7515;SDS011;3799;47.184;8.538;2023-04-24T15:14:38;1.70;;;0.60;;
7515;SDS011;3799;47.184;8.538;2023-04-24T15:17:06;2.78;;;1.15;;
7515;SDS011;3799;47.184;8.538;2023-04-24T15:19:34;2.20;;;0.80;;
7515;SDS011;3799;47.184;8.538;2023-04-24T15:22:01;2.58;;;1.00;;
7515;SDS011;3799;47.184;8.538;2023-04-24T15:24:28;4.90;;;1.00;;
7515;SDS011;3799;47.184;8.538;2023-04-24T15:26:58;2.88;;;1.10;;
7515;SDS011;3799;47.184;8.538;2023-04-24T15:29:40;3.53;;;1.20;;
7515;SDS011;3799;47.184;8.538;2023-04-24T15:32:07;3.72;;;1.23;;
7515;SDS011;3799;47.184;8.538;2023-04-24T15:34:36;2.25;;;1.40;;
7515;SDS011;3799;47.184;8.538;2023-04-24T15:37:03;2.38;;;0.75;;
7515;SDS011;3799;47.184;8.538;2023-04-24T15:39:33;1.67;;;0.68;;
7515;SDS011;3799;47.184;8.538;2023-04-24T15:42:03;1.80;;;0.60;;
7515;SDS011;3799;47.184;8.538;2023-04-24T15:44:31;2.65;;;0.75;;
7515;SDS011;3799;47.184;8.538;2023-04-24T15:47:00;2.03;;;0.60;;
7515;SDS011;3799;47.184;8.538;2023-04-24T15:51:56;2.38;;;0.70;;
7515;SDS011;3799;47.184;8.538;2023-04-24T15:54:23;2.63;;;0.98;;
7515;SDS011;3799;47.184;8.538;2023-04-24T15:56:53;1.90;;;0.63;;
7515;SDS011;3799;47.184;8.538;2023-04-24T15:59:21;3.85;;;0.90;;
7515;SDS011;3799;47.184;8.538;2023-04-24T16:01:49;1.40;;;0.80;;
7515;SDS011;3799;47.184;8.538;2023-04-24T16:04:17;1.40;;;0.70;;
7515;SDS011;3799;47.184;8.538;2023-04-24T16:06:45;2.80;;;0.60;;